CheckWX is a tool to help pilots better visualize weather data.  It is not intended as a substitute for an official pre-flight weather briefing.

16:01:53 UTC

VVPB TAF
Phu Bai Airport
Hue, Vietnam
TAF VVPB 181100Z 1812/1912 08008KT 8000 FEW013 BECMG 1815/1816 3500 BR BECMG 1900/1901 6000 NSW

Mar-18@
12:00 UTC

Mar-18 @ 12:00 UTC

Mar-18@
15:00 UTC

Mar-18 @ 15:00 UTC

TAF VVPB 181100Z 1812/1912 08008KT 8000 FEW013

Expired

Wind
  • 080° at 8 KTS
Cloud Levels
  • Few at 1,300' AGL

Mar-18@
15:00 UTC

Mar-18 @ 15:00 UTC

Mar-19@
00:00 UTC

Mar-19 @ 00:00 UTC

BECMG 1815/1816 3500 BR

Becoming

Becoming Conditions expected by Mon, Mar 18, 2019 @ 16:00 UTC

Wind
  • 080° at 8 KTS
Conditions
Mist
Cloud Levels
  • Few at 1,300' AGL

Mar-19@
00:00 UTC

Mar-19 @ 00:00 UTC

Mar-19@
12:00 UTC

Mar-19 @ 12:00 UTC

BECMG 1900/1901 6000 NSW

Becoming

Becoming Conditions expected by Tue, Mar 19, 2019 @ 01:00 UTC

Wind
  • 080° at 8 KTS
Conditions
No significant weather
Cloud Levels
  • Few at 1,300' AGL